Time;durP1;ratioP1;P1;durP2;ratioP2;P2;SDS_P1;SDS_P2;PMS_P1;PMS_P2;Temp;Humidity;BMP_temperature;BMP_pressure;BME280_temperature;BME280_humidity;BME280_pressure;Samples;Min_cycle;Max_cycle;Signal;HPM_P1;HPM_P2
2022/06/12 00:01:07;;;;;;;4.07;1.60;;;21.10;99.90;;;;;;5052735;28;20268;-77
2022/06/12 00:03:33;;;;;;;2.17;1.40;;;21.10;99.90;;;;;;5050046;28;20235;-78
2022/06/12 00:06:01;;;;;;;2.53;1.33;;;21.10;99.90;;;;;;5049934;28;20208;-77
2022/06/12 00:08:29;;;;;;;3.05;1.77;;;21.00;99.90;;;;;;5043029;28;20178;-78
2022/06/12 00:10:57;;;;;;;2.92;1.70;;;21.00;99.90;;;;;;5050474;28;20277;-79
2022/06/12 00:13:28;;;;;;;2.65;1.50;;;20.90;99.90;;;;;;5053336;28;20499;-78
2022/06/12 00:15:54;;;;;;;2.90;1.50;;;20.90;99.90;;;;;;5049295;28;20177;-77
2022/06/12 00:18:20;;;;;;;2.65;1.48;;;20.90;99.90;;;;;;5053384;28;20253;-78
2022/06/12 00:21:10;;;;;;;2.78;1.35;;;20.80;99.90;;;;;;5044811;28;20173;-78
2022/06/12 00:23:35;;;;;;;2.22;1.35;;;20.80;99.90;;;;;;5044457;28;20216;-77
2022/06/12 00:26:00;;;;;;;3.05;1.40;;;20.80;99.90;;;;;;5053612;28;20181;-78
2022/06/12 00:28:26;;;;;;;3.28;1.50;;;20.80;99.90;;;;;;5041843;28;20241;-77
2022/06/12 00:30:51;;;;;;;2.28;1.40;;;20.80;99.90;;;;;;5042686;28;20258;-78
2022/06/12 00:33:19;;;;;;;2.78;1.60;;;20.70;99.90;;;;;;5053974;28;20307;-75
2022/06/12 00:35:47;;;;;;;2.45;1.40;;;20.70;99.90;;;;;;5053674;28;20197;-78
2022/06/12 00:38:13;;;;;;;2.28;1.30;;;20.70;99.90;;;;;;5052476;28;20173;-76
2022/06/12 00:40:39;;;;;;;5.13;1.65;;;20.60;99.90;;;;;;5050367;28;20189;-78
2022/06/12 00:43:06;;;;;;;2.00;1.48;;;20.60;99.90;;;;;;5044197;28;20193;-79
2022/06/12 00:45:49;;;;;;;1.83;1.10;;;20.60;99.90;;;;;;5085986;28;20182;-78
2022/06/12 00:48:18;;;;;;;3.55;1.55;;;20.60;99.90;;;;;;5046295;28;20223;-75
2022/06/12 00:50:52;;;;;;;4.63;1.60;;;20.50;99.90;;;;;;5054195;28;20185;-78
2022/06/12 00:53:32;;;;;;;4.07;1.40;;;20.50;99.90;;;;;;5054023;28;20190;-79
2022/06/12 00:56:18;;;;;;;1.98;1.30;;;20.40;99.90;;;;;;5047496;28;20260;-79
2022/06/12 00:58:55;;;;;;;2.78;1.40;;;20.40;99.90;;;;;;5053932;28;20184;-78
2022/06/12 01:01:33;;;;;;;1.55;1.15;;;20.40;99.90;;;;;;5053805;28;20161;-78
2022/06/12 01:06:51;;;;;;;5.55;1.40;;;20.40;99.90;;;;;;5055980;28;20181;-77
2022/06/12 01:09:24;;;;;;;2.45;1.52;;;20.30;99.90;;;;;;5060117;28;20193;-78
2022/06/12 01:11:53;;;;;;;3.20;1.35;;;20.40;99.90;;;;;;5047288;28;20182;-77
2022/06/12 01:14:22;;;;;;;4.30;1.90;;;20.30;99.90;;;;;;5082396;28;20223;-78
2022/06/12 01:16:49;;;;;;;3.33;1.95;;;20.30;99.90;;;;;;5049191;28;20197;-78
2022/06/12 01:19:35;;;;;;;3.63;2.08;;;20.30;99.90;;;;;;5050971;28;20212;-77
2022/06/12 01:22:18;;;;;;;3.47;1.80;;;20.30;99.90;;;;;;5048178;28;20200;-79
2022/06/12 01:24:59;;;;;;;3.40;1.73;;;20.30;99.90;;;;;;5056304;28;20197;-79
2022/06/12 01:27:39;;;;;;;3.53;1.67;;;20.30;99.90;;;;;;5047508;28;20261;-78
2022/06/12 01:30:17;;;;;;;3.47;1.80;;;20.30;99.90;;;;;;5052635;28;20169;-79
2022/06/12 01:33:07;;;;;;;2.88;1.80;;;20.30;99.90;;;;;;5056647;28;20224;-80
2022/06/12 01:35:50;;;;;;;2.83;1.40;;;20.20;99.90;;;;;;5054548;28;20231;-79
2022/06/12 01:38:30;;;;;;;2.75;1.80;;;20.20;99.90;;;;;;5054891;28;20180;-79
2022/06/12 01:41:22;;;;;;;3.92;1.80;;;20.10;99.90;;;;;;5077573;28;20178;-80
2022/06/12 01:44:02;;;;;;;6.45;1.80;;;20.10;99.90;;;;;;5052564;28;20219;-80
2022/06/12 01:46:47;;;;;;;4.10;1.88;;;20.00;99.90;;;;;;5051568;28;20343;-77
2022/06/12 01:49:35;;;;;;;4.72;1.88;;;19.90;99.90;;;;;;5048816;28;20183;-79
2022/06/12 01:52:13;;;;;;;3.47;1.70;;;19.90;99.90;;;;;;5064743;28;20174;-79
2022/06/12 01:54:58;;;;;;;4.90;1.90;;;19.80;99.90;;;;;;5055910;28;20204;-79
2022/06/12 01:57:32;;;;;;;4.13;1.63;;;19.70;99.90;;;;;;5054608;28;20204;-77
2022/06/12 02:00:06;;;;;;;3.20;1.58;;;19.60;99.90;;;;;;5069716;28;20190;-78
2022/06/12 02:03:03;;;;;;;5.00;2.10;;;19.60;99.90;;;;;;5054208;28;20233;-79
2022/06/12 02:05:45;;;;;;;3.47;1.85;;;19.50;99.90;;;;;;5032230;28;20212;-77
2022/06/12 02:08:16;;;;;;;3.45;1.58;;;19.50;99.90;;;;;;5054878;28;20200;-78
2022/06/12 02:10:56;;;;;;;3.72;1.80;;;19.40;99.90;;;;;;5054617;28;20204;-79
2022/06/12 02:13:29;;;;;;;4.65;1.73;;;19.40;99.90;;;;;;5045847;28;20256;-79
2022/06/12 02:16:17;;;;;;;4.68;2.20;;;19.30;99.90;;;;;;5047654;28;20220;-79
2022/06/12 02:18:45;;;;;;;3.67;1.90;;;19.30;99.90;;;;;;5055359;28;20193;-78
2022/06/12 02:21:37;;;;;;;3.53;1.58;;;19.20;99.90;;;;;;5049722;28;20192;-78
2022/06/12 02:24:09;;;;;;;3.50;1.70;;;19.10;99.90;;;;;;5082172;28;20201;-79
2022/06/12 02:26:43;;;;;;;5.45;1.60;;;19.00;99.90;;;;;;5054602;28;20188;-79
2022/06/12 02:29:20;;;;;;;4.97;2.05;;;19.00;99.90;;;;;;5047554;28;20196;-79
2022/06/12 02:31:52;;;;;;;5.63;2.00;;;18.90;99.90;;;;;;5048780;28;20178;-78
2022/06/12 02:34:30;;;;;;;3.92;1.70;;;18.80;99.90;;;;;;5056576;28;20188;-78
2022/06/12 02:37:01;;;;;;;4.22;1.95;;;18.80;99.90;;;;;;5056355;28;20173;-79
2022/06/12 02:39:43;;;;;;;3.78;1.88;;;18.70;99.90;;;;;;5052312;28;20178;-80
2022/06/12 02:42:22;;;;;;;4.28;1.90;;;18.60;99.90;;;;;;5051669;28;20212;-80
2022/06/12 02:45:00;;;;;;;4.25;1.75;;;18.60;99.90;;;;;;5047047;28;20201;-78
2022/06/12 02:47:30;;;;;;;5.32;1.80;;;18.50;99.90;;;;;;5055581;28;20183;-79
2022/06/12 02:49:57;;;;;;;4.13;1.90;;;18.50;99.90;;;;;;5054498;28;20197;-79
2022/06/12 02:52:42;;;;;;;4.22;1.90;;;18.40;99.90;;;;;;5052041;28;20181;-78
2022/06/12 02:55:22;;;;;;;3.80;1.77;;;18.40;99.90;;;;;;5050555;28;20205;-80
2022/06/12 02:57:57;;;;;;;5.20;2.30;;;18.30;99.90;;;;;;5051829;28;20186;-80
2022/06/12 03:00:32;;;;;;;3.92;1.85;;;18.30;99.90;;;;;;5046504;28;20413;-77
2022/06/12 03:03:15;;;;;;;5.15;2.10;;;18.20;99.90;;;;;;5042094;28;20267;-81
2022/06/12 03:05:46;;;;;;;3.55;1.65;;;18.20;99.90;;;;;;5039308;28;20178;-79
2022/06/12 03:08:18;;;;;;;3.15;1.73;;;18.10;99.90;;;;;;5087788;28;20177;-81
2022/06/12 03:10:57;;;;;;;8.20;1.83;;;18.00;99.90;;;;;;5051319;28;20170;-80
2022/06/12 03:13:28;;;;;;;6.25;2.05;;;18.00;99.90;;;;;;5052908;28;20224;-79
2022/06/12 03:15:57;;;;;;;2.53;1.48;;;17.90;99.90;;;;;;5047289;28;20199;-79
2022/06/12 03:18:32;;;;;;;3.97;2.10;;;17.90;99.90;;;;;;5049281;28;20186;-79
2022/06/12 03:21:10;;;;;;;5.10;2.40;;;17.80;99.90;;;;;;5078791;28;20200;-81
2022/06/12 03:23:53;;;;;;;6.65;2.13;;;17.80;99.90;;;;;;5065065;28;20209;-79
2022/06/12 03:26:41;;;;;;;4.10;2.00;;;17.80;99.90;;;;;;5086359;28;20263;-79
2022/06/12 03:29:37;;;;;;;5.28;1.77;;;17.70;99.90;;;;;;5052121;28;20207;-77
2022/06/12 03:32:22;;;;;;;5.05;1.80;;;17.70;99.90;;;;;;5049403;28;20326;-79
2022/06/12 03:35:15;;;;;;;3.33;1.70;;;17.60;99.90;;;;;;5045892;28;20186;-78
2022/06/12 03:37:50;;;;;;;5.20;2.10;;;17.60;99.90;;;;;;5053844;28;20201;-76
2022/06/12 03:40:40;;;;;;;4.95;2.17;;;17.60;99.90;;;;;;5041667;28;20178;-80
2022/06/12 03:43:07;;;;;;;4.72;1.95;;;17.60;99.90;;;;;;5050996;28;20193;-80
2022/06/12 03:45:45;;;;;;;4.10;1.92;;;17.60;99.90;;;;;;5053065;28;20267;-77
2022/06/12 03:48:33;;;;;;;3.63;2.20;;;17.50;99.90;;;;;;5050246;28;20216;-79
2022/06/12 03:51:26;;;;;;;3.95;2.00;;;17.50;99.90;;;;;;5074398;28;20181;-81
2022/06/12 03:53:56;;;;;;;3.55;2.03;;;17.50;99.90;;;;;;5049938;28;20189;-79
2022/06/12 03:59:54;;;;;;;3.60;1.75;;;17.50;99.90;;;;;;5062131;28;20227;-78
2022/06/12 04:02:24;;;;;;;4.63;2.10;;;17.60;99.90;;;;;;5052817;28;20232;-80
2022/06/12 04:04:51;;;;;;;6.65;2.28;;;17.60;99.90;;;;;;5053341;28;20261;-76
2022/06/12 04:07:20;;;;;;;5.80;2.55;;;17.60;99.90;;;;;;5048356;28;20236;-79
2022/06/12 04:09:51;;;;;;;5.80;2.13;;;17.60;99.90;;;;;;5066907;28;20272;-79
2022/06/12 04:12:32;;;;;;;5.70;2.20;;;17.60;99.90;;;;;;5051851;28;20174;-80
2022/06/12 04:15:22;;;;;;;6.95;2.42;;;17.60;99.90;;;;;;5053980;28;20284;-80
2022/06/12 04:17:50;;;;;;;4.57;2.30;;;17.60;99.90;;;;;;5053547;28;20185;-80
2022/06/12 04:20:21;;;;;;;3.00;1.85;;;17.60;99.90;;;;;;5049196;28;20178;-79
2022/06/12 04:22:56;;;;;;;4.57;1.98;;;17.60;99.90;;;;;;5050898;28;20231;-77
2022/06/12 04:25:30;;;;;;;5.85;2.30;;;17.60;99.90;;;;;;5052586;28;20192;-80
2022/06/12 04:27:56;;;;;;;5.07;2.05;;;17.60;99.90;;;;;;5047882;28;20204;-80
2022/06/12 04:30:33;;;;;;;6.20;2.30;;;17.60;99.90;;;;;;5040350;28;20184;-80
2022/06/12 04:33:19;;;;;;;4.32;2.22;;;17.60;99.90;;;;;;5081484;28;20177;-82
2022/06/12 04:35:52;;;;;;;4.60;2.03;;;17.60;99.90;;;;;;5058222;28;20198;-79
2022/06/12 04:38:18;;;;;;;4.30;1.83;;;17.60;99.90;;;;;;5045419;28;20182;-80
2022/06/12 04:40:47;;;;;;;3.75;2.17;;;17.60;99.90;;;;;;5050126;28;20192;-80
2022/06/12 04:43:15;;;;;;;3.42;1.67;;;17.60;99.90;;;;;;5051801;28;20411;-79
2022/06/12 04:45:41;;;;;;;2.97;1.77;;;17.60;99.90;;;;;;5051369;28;20174;-80
2022/06/12 04:48:14;;;;;;;3.83;1.80;;;17.70;99.90;;;;;;5054337;28;20201;-80
2022/06/12 04:50:45;;;;;;;3.60;1.75;;;17.70;99.90;;;;;;5047922;28;20178;-79
2022/06/12 04:53:10;;;;;;;3.70;1.73;;;17.70;99.90;;;;;;5056765;28;20177;-79
2022/06/12 04:55:36;;;;;;;5.00;1.92;;;17.70;99.90;;;;;;5092090;28;20184;-80
2022/06/12 04:58:04;;;;;;;3.83;1.85;;;17.70;99.90;;;;;;5090958;28;20196;-77
2022/06/12 05:00:35;;;;;;;6.10;1.80;;;17.80;99.90;;;;;;5056907;28;20629;-77
2022/06/12 05:03:04;;;;;;;4.20;1.65;;;17.80;99.90;;;;;;5057356;28;20173;-79
2022/06/12 05:05:30;;;;;;;3.42;2.08;;;17.90;99.90;;;;;;5058111;28;20200;-77
2022/06/12 05:07:56;;;;;;;4.50;2.17;;;17.90;99.90;;;;;;5056754;28;20193;-79
2022/06/12 05:10:24;;;;;;;5.10;2.33;;;18.00;99.90;;;;;;5056236;28;20190;-74
2022/06/12 05:12:50;;;;;;;3.25;1.75;;;18.00;99.90;;;;;;5052964;28;20173;-75
2022/06/12 05:15:16;;;;;;;4.68;2.30;;;18.00;99.90;;;;;;5079536;28;20181;-77
2022/06/12 05:17:45;;;;;;;4.30;1.98;;;18.10;99.90;;;;;;5038644;28;20215;-79
2022/06/12 05:20:18;;;;;;;3.53;1.60;;;18.20;99.90;;;;;;5062630;28;20201;-79
2022/06/12 05:22:47;;;;;;;3.95;1.85;;;18.30;99.90;;;;;;5051611;28;20177;-79
2022/06/12 05:25:13;;;;;;;4.75;2.05;;;18.30;99.90;;;;;;5046121;28;20213;-78
2022/06/12 05:27:39;;;;;;;5.63;1.80;;;18.40;99.90;;;;;;5041119;28;20201;-79
2022/06/12 05:30:06;;;;;;;4.45;2.10;;;18.40;99.90;;;;;;5057049;28;20180;-78
2022/06/12 05:32:33;;;;;;;4.13;2.10;;;18.50;99.90;;;;;;5052146;28;20174;-79
2022/06/12 05:35:03;;;;;;;7.95;2.25;;;18.50;99.90;;;;;;5056045;28;20192;-79
2022/06/12 05:37:31;;;;;;;5.60;2.25;;;18.60;99.90;;;;;;5051548;28;20181;-79
2022/06/12 05:39:59;;;;;;;5.57;2.30;;;18.70;99.90;;;;;;5056666;28;20197;-79
2022/06/12 05:42:28;;;;;;;4.68;2.10;;;18.70;99.90;;;;;;5055519;28;20177;-80
2022/06/12 05:44:53;;;;;;;3.95;1.90;;;18.80;99.90;;;;;;5047860;28;20240;-79
2022/06/12 05:47:21;;;;;;;4.22;2.03;;;18.90;99.90;;;;;;5048853;28;20193;-81
2022/06/12 05:49:49;;;;;;;4.03;2.00;;;18.90;99.90;;;;;;5056922;28;20257;-79
2022/06/12 05:52:15;;;;;;;4.32;2.05;;;19.00;99.90;;;;;;5051525;28;20275;-75
2022/06/12 05:54:45;;;;;;;3.80;1.88;;;19.10;99.90;;;;;;5043939;28;20252;-79
2022/06/12 05:57:11;;;;;;;4.30;1.70;;;19.10;99.90;;;;;;5056579;28;20181;-79
2022/06/12 05:59:36;;;;;;;5.50;2.10;;;19.20;99.90;;;;;;5055092;28;20292;-80
2022/06/12 06:02:02;;;;;;;4.30;1.90;;;19.20;99.90;;;;;;5056418;28;20177;-80
2022/06/12 06:04:28;;;;;;;5.53;2.15;;;19.20;99.90;;;;;;5055951;28;20287;-78
2022/06/12 06:06:58;;;;;;;5.07;1.65;;;19.30;99.90;;;;;;5056527;28;20296;-75
2022/06/12 06:09:25;;;;;;;5.40;2.30;;;19.30;99.90;;;;;;5053778;28;20260;-74
2022/06/12 06:11:50;;;;;;;4.28;2.60;;;19.40;99.90;;;;;;5087446;28;20186;-74
2022/06/12 06:14:16;;;;;;;6.43;2.22;;;19.40;99.90;;;;;;5052626;28;20198;-74
2022/06/12 06:16:42;;;;;;;3.47;1.60;;;19.40;99.90;;;;;;5053731;28;20478;-74
2022/06/12 06:19:09;;;;;;;5.57;2.50;;;19.50;99.90;;;;;;5042032;28;20193;-74
2022/06/12 06:21:35;;;;;;;4.75;2.30;;;19.50;99.90;;;;;;5050601;28;20184;-74
2022/06/12 06:24:01;;;;;;;5.82;2.00;;;19.50;99.90;;;;;;5051216;28;20211;-75
2022/06/12 06:26:29;;;;;;;6.43;2.33;;;19.50;99.90;;;;;;5042444;28;20284;-74
2022/06/12 06:28:57;;;;;;;6.03;2.30;;;19.60;99.90;;;;;;5086609;28;20170;-74
2022/06/12 06:31:23;;;;;;;4.72;2.00;;;19.60;99.90;;;;;;5057642;28;20177;-76
2022/06/12 06:33:51;;;;;;;8.20;2.00;;;19.60;99.90;;;;;;5056792;28;20216;-74
2022/06/12 06:36:17;;;;;;;4.30;1.80;;;19.60;99.90;;;;;;5055736;28;20207;-74
2022/06/12 06:38:45;;;;;;;5.38;2.30;;;19.70;99.90;;;;;;5053569;28;20201;-74
2022/06/12 06:41:12;;;;;;;3.55;1.90;;;19.70;99.90;;;;;;5055438;28;20196;-76
2022/06/12 06:46:22;;;;;;;2.95;1.60;;;19.70;99.90;;;;;;5046892;28;20377;-75
2022/06/12 06:48:48;;;;;;;4.85;1.85;;;19.80;99.90;;;;;;5055121;28;20233;-76
2022/06/12 06:51:14;;;;;;;4.65;2.03;;;19.80;99.90;;;;;;5056743;28;20184;-76
2022/06/12 06:53:42;;;;;;;4.05;1.70;;;19.90;99.90;;;;;;5047867;28;20173;-76
2022/06/12 06:56:08;;;;;;;3.08;1.30;;;19.90;99.90;;;;;;5055637;28;20189;-75
2022/06/12 06:58:35;;;;;;;3.58;1.65;;;19.90;99.90;;;;;;5053924;28;20224;-75
2022/06/12 07:01:02;;;;;;;3.40;1.63;;;20.00;99.90;;;;;;5051661;28;20181;-73
2022/06/12 07:03:30;;;;;;;2.65;1.30;;;20.10;99.90;;;;;;5052108;28;20264;-75
2022/06/12 07:05:56;;;;;;;5.70;1.92;;;20.10;99.90;;;;;;5050369;28;20173;-74
2022/06/12 07:08:27;;;;;;;3.30;1.60;;;20.10;99.90;;;;;;5081833;28;20342;-74
2022/06/12 07:10:56;;;;;;;6.65;1.90;;;20.10;99.90;;;;;;5064525;28;20198;-73
2022/06/12 07:13:26;;;;;;;5.00;1.88;;;20.20;99.90;;;;;;5049238;28;20169;-74
2022/06/12 07:15:52;;;;;;;4.32;1.63;;;20.20;99.90;;;;;;5052007;28;20280;-73
2022/06/12 07:18:18;;;;;;;4.63;2.08;;;20.20;99.90;;;;;;5088071;28;20297;-74
2022/06/12 07:20:51;;;;;;;4.80;2.05;;;20.30;99.90;;;;;;5054098;28;20272;-74
2022/06/12 07:23:18;;;;;;;5.90;2.55;;;20.30;99.90;;;;;;5082575;28;20169;-73
2022/06/12 07:25:52;;;;;;;3.42;1.80;;;20.30;99.90;;;;;;5050699;28;20205;-74
2022/06/12 07:28:18;;;;;;;4.25;2.00;;;20.40;99.90;;;;;;5044166;28;20177;-73
2022/06/12 07:30:47;;;;;;;3.95;1.52;;;20.40;99.90;;;;;;5036669;28;20250;-73
2022/06/12 07:33:15;;;;;;;4.95;1.95;;;20.40;99.90;;;;;;5054394;28;20209;-71
2022/06/12 07:35:47;;;;;;;6.30;1.90;;;20.50;99.90;;;;;;5054061;28;20234;-74
2022/06/12 07:38:19;;;;;;;4.32;1.70;;;20.50;99.90;;;;;;5086939;28;20205;-73
2022/06/12 07:40:48;;;;;;;4.18;1.67;;;20.60;99.90;;;;;;5086053;28;20169;-74
2022/06/12 07:43:14;;;;;;;3.72;1.38;;;20.60;99.90;;;;;;5049295;28;20183;-72
2022/06/12 07:45:41;;;;;;;5.32;1.60;;;20.70;99.90;;;;;;5053885;28;20464;-73
2022/06/12 07:48:07;;;;;;;4.03;1.67;;;20.70;99.90;;;;;;5053085;28;20173;-75
2022/06/12 07:50:37;;;;;;;4.72;1.70;;;20.70;99.90;;;;;;5053401;28;20185;-74
2022/06/12 07:53:03;;;;;;;5.25;1.70;;;20.80;99.90;;;;;;5044921;28;20186;-72
2022/06/12 07:55:32;;;;;;;3.33;1.40;;;20.80;99.90;;;;;;5053611;28;20235;-72
2022/06/12 07:57:57;;;;;;;4.63;1.60;;;20.80;99.90;;;;;;5087770;28;20201;-74
2022/06/12 08:00:25;;;;;;;4.10;1.40;;;20.80;99.90;;;;;;5053723;28;20183;-74
2022/06/12 08:02:51;;;;;;;4.63;1.70;;;20.90;99.90;;;;;;5054205;28;20169;-74
2022/06/12 08:05:19;;;;;;;3.42;1.40;;;20.90;99.90;;;;;;5052578;28;20300;-71
2022/06/12 08:07:44;;;;;;;3.17;1.65;;;20.90;99.90;;;;;;5049701;28;20170;-73
2022/06/12 08:10:13;;;;;;;1.77;1.05;;;21.00;99.90;;;;;;5054176;28;20235;-74
2022/06/12 08:12:43;;;;;;;4.63;1.58;;;21.00;99.90;;;;;;5053774;28;20181;-73
2022/06/12 08:15:15;;;;;;;3.05;1.40;;;21.10;99.90;;;;;;5073596;28;20277;-73
2022/06/12 08:17:41;;;;;;;4.97;1.50;;;21.10;99.90;;;;;;5084863;28;20216;-75
2022/06/12 08:20:26;;;;;;;4.68;1.55;;;21.20;99.90;;;;;;5044632;28;20232;-75
2022/06/12 08:23:33;;;;;;;3.83;1.70;;;21.20;99.90;;;;;;5056440;28;20231;-73
2022/06/12 08:26:10;;;;;;;8.13;1.92;;;21.30;99.90;;;;;;5053664;28;20188;-75
2022/06/12 08:29:07;;;;;;;3.55;1.23;;;21.30;99.90;;;;;;5058649;28;20164;-75
2022/06/12 08:32:02;;;;;;;3.28;1.35;;;21.30;99.90;;;;;;5088695;28;20209;-74
2022/06/12 08:34:32;;;;;;;4.32;1.38;;;21.40;99.90;;;;;;5068060;28;20264;-72
2022/06/12 08:37:05;;;;;;;3.92;1.17;;;21.50;99.90;;;;;;5055052;28;20208;-75
2022/06/12 08:39:34;;;;;;;3.85;1.58;;;21.50;99.90;;;;;;5054898;28;20185;-74
2022/06/12 08:42:18;;;;;;;3.78;1.50;;;21.50;99.90;;;;;;5053989;28;20195;-74
2022/06/12 08:44:54;;;;;;;3.25;1.48;;;21.60;99.90;;;;;;5057160;28;20196;-75
2022/06/12 08:47:24;;;;;;;4.07;1.60;;;21.70;99.90;;;;;;5061000;28;20173;-74
2022/06/12 08:50:04;;;;;;;3.55;1.30;;;21.70;99.90;;;;;;5060756;28;20250;-75
2022/06/12 08:52:33;;;;;;;3.45;1.30;;;21.70;99.90;;;;;;5052139;28;20269;-74
2022/06/12 08:55:16;;;;;;;4.32;1.38;;;21.70;99.90;;;;;;5069568;28;20470;-72
2022/06/12 08:58:12;;;;;;;4.40;1.42;;;21.70;99.90;;;;;;5070343;28;20196;-75
2022/06/12 09:00:39;;;;;;;3.80;1.45;;;21.80;99.90;;;;;;5075835;28;20220;-74
2022/06/12 09:03:11;;;;;;;7.28;3.97;;;21.80;99.90;;;;;;5094187;28;20268;-76
2022/06/12 09:06:15;;;;;;;4.63;2.00;;;21.90;99.90;;;;;;5049180;28;20262;-74
2022/06/12 09:08:47;;;;;;;4.70;1.55;;;22.00;99.90;;;;;;5068587;28;20173;-75
2022/06/12 09:11:34;;;;;;;2.67;1.30;;;22.00;99.90;;;;;;5047906;28;20204;-74
2022/06/12 09:14:34;;;;;;;2.97;1.27;;;22.00;99.90;;;;;;5060412;28;20169;-74
2022/06/12 09:17:40;;;;;;;5.30;1.20;;;22.00;99.90;;;;;;5052727;28;20239;-74
2022/06/12 09:20:09;;;;;;;3.13;1.38;;;22.10;99.90;;;;;;5042695;28;20177;-74
2022/06/12 09:22:56;;;;;;;3.33;1.25;;;22.10;99.90;;;;;;5054704;28;20231;-74
2022/06/12 09:25:28;;;;;;;4.45;1.40;;;22.20;99.90;;;;;;5065691;28;20209;-75
2022/06/12 09:28:35;;;;;;;3.90;1.20;;;22.30;99.90;;;;;;5060276;28;20176;-75
2022/06/12 09:31:05;;;;;;;3.97;1.08;;;22.40;99.90;;;;;;5041893;28;20202;-75
2022/06/12 09:33:31;;;;;;;4.45;1.38;;;22.50;99.90;;;;;;5072395;28;20176;-75
2022/06/12 09:36:05;;;;;;;4.35;2.13;;;22.50;99.90;;;;;;5060212;28;20246;-74
2022/06/12 09:38:58;;;;;;;5.10;1.70;;;22.60;99.90;;;;;;5057555;28;20174;-75
2022/06/12 09:41:36;;;;;;;3.92;1.65;;;22.60;99.90;;;;;;5059374;28;20289;-75
2022/06/12 09:44:07;;;;;;;3.33;1.30;;;22.70;99.90;;;;;;5045370;28;20197;-75
2022/06/12 09:47:09;;;;;;;2.47;1.20;;;22.80;99.90;;;;;;5068974;28;20189;-74
2022/06/12 09:49:36;;;;;;;2.35;1.02;;;22.80;99.90;;;;;;5050171;28;20173;-74
2022/06/12 09:52:11;;;;;;;2.40;1.08;;;22.90;99.90;;;;;;5047816;28;20193;-74
2022/06/12 09:54:51;;;;;;;4.20;1.50;;;22.90;99.90;;;;;;5055053;28;20201;-74
2022/06/12 09:57:49;;;;;;;3.20;1.20;;;23.00;99.90;;;;;;5062738;28;20197;-75
2022/06/12 10:00:21;;;;;;;2.35;0.95;;;23.00;99.90;;;;;;5046770;28;20197;-73
2022/06/12 10:03:14;;;;;;;3.08;1.00;;;23.10;99.90;;;;;;5042617;28;20205;-75
2022/06/12 10:05:54;;;;;;;2.35;0.98;;;23.10;99.90;;;;;;5055579;28;20211;-74
2022/06/12 10:08:28;;;;;;;2.70;1.23;;;23.20;99.90;;;;;;5054029;28;20170;-74
2022/06/12 10:10:57;;;;;;;3.03;1.10;;;23.30;99.90;;;;;;5069478;28;20181;-74
2022/06/12 10:13:35;;;;;;;3.17;1.00;;;23.30;99.90;;;;;;5065565;28;20173;-74
2022/06/12 10:16:14;;;;;;;3.22;1.40;;;23.30;99.90;;;;;;5088305;28;20180;-73
2022/06/12 10:18:49;;;;;;;2.33;1.00;;;23.40;99.90;;;;;;5056025;28;20578;-73
2022/06/12 10:21:21;;;;;;;1.83;0.93;;;23.50;99.90;;;;;;5054509;28;20173;-75
2022/06/12 10:23:47;;;;;;;2.03;0.88;;;23.60;99.90;;;;;;5055321;28;20454;-74
2022/06/12 10:26:21;;;;;;;2.20;1.02;;;23.70;99.90;;;;;;5053066;28;20247;-75
2022/06/12 10:28:59;;;;;;;2.22;0.90;;;23.70;99.90;;;;;;5064820;28;20224;-73
2022/06/12 10:31:25;;;;;;;2.67;0.80;;;23.80;99.90;;;;;;5054706;28;20165;-74
2022/06/12 10:33:56;;;;;;;2.88;0.90;;;23.90;99.90;;;;;;5049894;28;20178;-75
2022/06/12 10:36:26;;;;;;;2.42;1.10;;;24.00;99.90;;;;;;5047551;28;20166;-74
2022/06/12 10:39:05;;;;;;;1.63;0.80;;;24.20;99.90;;;;;;5055092;28;20212;-75
2022/06/12 10:41:31;;;;;;;2.22;0.80;;;24.30;99.90;;;;;;5055822;28;20204;-73
2022/06/12 10:43:58;;;;;;;1.55;0.70;;;24.40;99.90;;;;;;5056845;28;20193;-74
2022/06/12 10:46:32;;;;;;;2.13;0.70;;;24.50;99.90;;;;;;5046399;28;20178;-77
2022/06/12 10:49:18;;;;;;;1.50;0.77;;;24.60;99.90;;;;;;5041793;28;20268;-75
2022/06/12 10:51:45;;;;;;;2.72;0.73;;;24.80;99.90;;;;;;5054950;28;20174;-69
2022/06/12 10:54:26;;;;;;;1.58;0.80;;;24.90;99.90;;;;;;5047170;28;20205;-75
2022/06/12 10:57:21;;;;;;;1.52;0.75;;;25.10;99.90;;;;;;5039895;28;20212;-72
2022/06/12 11:00:04;;;;;;;2.30;0.82;;;25.30;99.90;;;;;;5051184;28;20356;-75
2022/06/12 11:02:35;;;;;;;3.15;0.80;;;25.50;99.90;;;;;;5052581;28;20199;-75
2022/06/12 11:05:24;;;;;;;1.30;0.70;;;25.70;99.90;;;;;;5043918;28;20213;-76
2022/06/12 11:08:00;;;;;;;1.20;0.60;;;25.80;99.90;;;;;;5039303;28;20182;-74
2022/06/12 11:10:43;;;;;;;2.08;0.70;;;26.00;98.90;;;;;;5050027;28;20174;-74
2022/06/12 11:13:09;;;;;;;1.73;0.80;;;26.10;96.70;;;;;;5054878;28;20197;-75
2022/06/12 11:16:05;;;;;;;2.00;0.60;;;26.10;99.90;;;;;;5055040;28;20177;-75
2022/06/12 11:18:52;;;;;;;1.08;0.63;;;26.20;98.80;;;;;;5048353;28;20193;-75
2022/06/12 11:21:40;;;;;;;1.40;0.60;;;26.30;99.80;;;;;;5053721;28;20177;-76
2022/06/12 11:24:13;;;;;;;1.13;0.65;;;26.50;99.90;;;;;;5054005;28;20255;-75
2022/06/12 11:26:51;;;;;;;1.75;0.50;;;26.60;97.80;;;;;;5057463;28;20207;-70
2022/06/12 11:29:50;;;;;;;2.47;1.10;;;26.60;98.70;;;;;;5057573;28;20169;-76
2022/06/12 11:32:44;;;;;;;1.55;0.90;;;26.80;97.30;;;;;;5045916;28;20201;-75
2022/06/12 11:35:18;;;;;;;1.30;0.70;;;26.90;94.30;;;;;;5051860;28;20181;-72
2022/06/12 11:38:08;;;;;;;1.30;0.57;;;27.00;97.70;;;;;;5044311;28;20211;-74
2022/06/12 11:40:58;;;;;;;2.08;0.63;;;27.00;92.50;;;;;;5048944;28;20174;-75
2022/06/12 11:43:33;;;;;;;1.08;0.60;;;27.10;94.10;;;;;;5053993;28;20216;-73
2022/06/12 11:46:39;;;;;;;1.05;0.60;;;27.30;96.30;;;;;;5051744;28;20480;-75
2022/06/12 11:49:17;;;;;;;1.10;0.70;;;27.30;90.80;;;;;;5054433;28;20193;-75
2022/06/12 11:52:06;;;;;;;1.90;0.60;;;27.40;91.20;;;;;;5052816;28;20173;-75
2022/06/12 11:54:47;;;;;;;2.33;0.60;;;27.50;91.10;;;;;;5054516;28;20197;-75
2022/06/12 11:57:22;;;;;;;4.57;0.80;;;27.50;91.70;;;;;;5055072;28;20240;-74
2022/06/12 12:00:06;;;;;;;2.20;0.88;;;27.40;88.00;;;;;;5053953;28;20201;-75
2022/06/12 12:03:10;;;;;;;0.85;0.60;;;27.50;87.90;;;;;;5061911;28;20318;-76
2022/06/12 12:05:40;;;;;;;1.55;0.73;;;27.50;85.60;;;;;;5043932;28;20226;-76
2022/06/12 12:08:24;;;;;;;0.80;0.50;;;27.60;90.60;;;;;;5045755;28;20174;-77
2022/06/12 12:11:09;;;;;;;1.25;0.40;;;27.80;81.70;;;;;;5053757;28;20184;-75
2022/06/12 12:13:43;;;;;;;1.55;0.75;;;27.90;89.70;;;;;;5047809;28;21175;-77
2022/06/12 12:16:53;;;;;;;1.80;0.70;;;28.00;85.20;;;;;;5065504;28;20224;-75
2022/06/12 12:19:30;;;;;;;1.80;0.70;;;28.20;80.40;;;;;;5067268;28;20205;-76
2022/06/12 12:22:08;;;;;;;2.70;1.13;;;28.30;77.00;;;;;;5050335;28;20169;-76
2022/06/12 12:24:49;;;;;;;1.48;0.60;;;28.40;72.20;;;;;;5052650;28;20307;-74
2022/06/12 12:27:30;;;;;;;1.55;0.85;;;28.40;79.50;;;;;;5077302;28;20174;-74
2022/06/12 12:29:58;;;;;;;1.85;0.77;;;28.40;75.80;;;;;;5053185;28;20230;-76
2022/06/12 12:32:28;;;;;;;2.47;0.90;;;28.40;79.00;;;;;;5043863;28;20284;-76
2022/06/12 12:34:58;;;;;;;1.58;0.80;;;28.40;78.50;;;;;;5051303;28;20205;-76
2022/06/12 12:43:17;;;;;;;1.67;0.70;;;28.70;71.90;;;;;;5050215;28;20298;-75
2022/06/12 12:45:45;;;;;;;2.47;0.80;;;28.70;77.40;;;;;;5048477;28;20227;-76
2022/06/12 12:48:14;;;;;;;2.58;0.80;;;28.80;79.40;;;;;;5053095;28;20284;-74
2022/06/12 12:50:54;;;;;;;2.67;0.90;;;28.90;76.10;;;;;;5041508;28;20178;-74
2022/06/12 12:53:29;;;;;;;2.08;0.90;;;29.00;70.80;;;;;;5050636;28;20281;-76
2022/06/12 12:56:11;;;;;;;2.30;0.65;;;29.00;71.40;;;;;;5050402;28;20185;-76
2022/06/12 12:58:58;;;;;;;3.25;0.88;;;29.10;72.00;;;;;;5046722;28;20215;-76
2022/06/12 13:01:28;;;;;;;2.22;1.00;;;29.10;72.00;;;;;;5052937;28;20192;-75
2022/06/12 13:04:04;;;;;;;3.38;1.60;;;29.10;71.70;;;;;;5051806;28;20205;-75
2022/06/12 13:07:11;;;;;;;2.88;0.73;;;29.10;64.30;;;;;;5047379;28;20181;-75
2022/06/12 13:10:04;;;;;;;2.20;1.02;;;29.10;67.10;;;;;;5053663;28;20288;-76
2022/06/12 13:12:48;;;;;;;2.30;0.93;;;29.20;64.40;;;;;;5038877;28;20173;-75
2022/06/12 13:16:01;;;;;;;2.53;1.08;;;29.10;65.10;;;;;;5049040;28;20208;-76
2022/06/12 13:18:46;;;;;;;3.28;1.05;;;29.10;66.70;;;;;;5054556;28;20204;-76
2022/06/12 13:21:17;;;;;;;1.83;0.88;;;29.10;66.40;;;;;;5057266;28;20187;-75
2022/06/12 13:23:52;;;;;;;4.55;1.10;;;29.10;69.10;;;;;;5054311;28;20271;-77
2022/06/12 13:26:20;;;;;;;2.40;0.93;;;29.10;70.80;;;;;;5056959;28;20161;-76
2022/06/12 13:28:55;;;;;;;2.97;0.93;;;29.10;69.40;;;;;;5048485;28;20237;-76
2022/06/12 13:31:22;;;;;;;3.50;1.17;;;29.10;67.00;;;;;;5057444;28;20169;-75
2022/06/12 13:34:06;;;;;;;3.28;1.35;;;29.00;69.10;;;;;;5060202;28;20177;-75
2022/06/12 13:36:44;;;;;;;2.97;1.20;;;29.00;64.70;;;;;;5049143;28;20179;-76
2022/06/12 13:39:32;;;;;;;2.65;1.25;;;29.00;70.30;;;;;;5059967;28;20170;-76
2022/06/12 13:42:15;;;;;;;1.95;0.82;;;29.10;69.30;;;;;;5044615;28;20204;-75
2022/06/12 13:44:44;;;;;;;2.53;1.00;;;29.20;68.50;;;;;;5046393;28;20189;-76